createdAt,value
2022-07-31T00:00:47.343Z,67.42
2022-07-31T00:01:47.437Z,67.42
2022-07-31T00:02:47.487Z,67.42
2022-07-31T00:03:47.677Z,67.42
2022-07-31T00:04:47.667Z,67.42
2022-07-31T00:05:47.766Z,67.32
2022-07-31T00:06:47.829Z,67.32
2022-07-31T00:07:47.866Z,67.32
2022-07-31T00:08:47.994Z,67.22
2022-07-31T00:09:53.571Z,67.22
2022-07-31T00:10:48.148Z,67.32
2022-07-31T00:11:48.257Z,67.22
2022-07-31T00:12:48.306Z,67.32
2022-07-31T00:13:57.526Z,67.42
2022-07-31T00:14:48.527Z,67.61
2022-07-31T00:15:48.592Z,67.72
2022-07-31T00:16:48.702Z,67.82
2022-07-31T00:17:48.747Z,67.82
2022-07-31T00:18:48.882Z,67.82
2022-07-31T00:19:48.908Z,67.61
2022-07-31T00:20:48.980Z,67.75
2022-07-31T00:21:49.073Z,67.85
2022-07-31T00:22:56.681Z,67.85
2022-07-31T00:23:49.299Z,67.75
2022-07-31T00:24:49.348Z,67.95
2022-07-31T00:25:49.433Z,67.95
2022-07-31T00:26:49.515Z,68.05
2022-07-31T00:27:49.655Z,68.15
2022-07-31T00:28:49.747Z,67.85
2022-07-31T00:29:49.781Z,67.85
2022-07-31T00:30:49.872Z,67.85
2022-07-31T00:31:49.961Z,67.85
2022-07-31T00:32:51.828Z,67.95
2022-07-31T00:33:50.161Z,68.05
2022-07-31T00:34:50.208Z,67.95
2022-07-31T00:35:50.295Z,67.85
2022-07-31T00:36:50.422Z,67.85
2022-07-31T00:37:52.276Z,67.85
2022-07-31T00:38:50.621Z,67.75
2022-07-31T00:39:50.674Z,67.85
2022-07-31T00:40:50.778Z,67.85
2022-07-31T00:41:50.858Z,67.95
2022-07-31T00:42:50.932Z,67.95
2022-07-31T00:43:51.033Z,67.95
2022-07-31T00:44:51.073Z,67.85
2022-07-31T00:45:58.899Z,67.85
2022-07-31T00:46:51.241Z,67.85
2022-07-31T00:47:51.321Z,67.65
2022-07-31T00:48:51.461Z,67.55
2022-07-31T00:49:51.499Z,67.45
2022-07-31T00:50:51.524Z,67.45
2022-07-31T00:51:51.652Z,67.55
2022-07-31T00:52:51.707Z,67.55
2022-07-31T00:53:51.829Z,67.55
2022-07-31T00:54:51.883Z,67.65
2022-07-31T00:55:52.404Z,67.75
2022-07-31T00:56:52.049Z,67.75
2022-07-31T00:57:52.095Z,67.85
2022-07-31T00:58:52.221Z,67.95
2022-07-31T00:59:52.271Z,67.85
2022-07-31T01:00:52.563Z,67.95
2022-07-31T01:01:52.458Z,67.95
2022-07-31T01:02:52.512Z,67.95
2022-07-31T01:03:52.625Z,67.95
2022-07-31T01:04:52.666Z,67.85
2022-07-31T01:05:52.743Z,67.75
2022-07-31T01:06:52.876Z,67.85
2022-07-31T01:07:52.918Z,67.75
2022-07-31T01:08:53.059Z,67.75
2022-07-31T01:09:53.085Z,67.78
2022-07-31T01:10:53.188Z,67.78
2022-07-31T01:11:53.228Z,67.78
2022-07-31T01:12:54.315Z,67.88
2022-07-31T01:13:53.429Z,67.88
2022-07-31T01:14:53.512Z,67.88
2022-07-31T01:15:53.564Z,67.98
2022-07-31T01:16:53.642Z,67.98
2022-07-31T01:17:53.776Z,67.98
2022-07-31T01:18:53.899Z,68.08
2022-07-31T01:19:53.919Z,68.15
2022-07-31T01:20:54.041Z,68.15
2022-07-31T01:21:54.105Z,68.15
2022-07-31T01:22:54.154Z,68.15
2022-07-31T01:23:55.238Z,68.15
2022-07-31T01:24:54.321Z,68.05
2022-07-31T01:25:54.422Z,68.05
2022-07-31T01:26:54.486Z,67.98
2022-07-31T01:27:54.554Z,67.88
2022-07-31T01:28:54.680Z,67.78
2022-07-31T01:29:54.706Z,67.78
2022-07-31T01:31:10.759Z,67.68
2022-07-31T01:31:54.848Z,67.78
2022-07-31T01:32:54.940Z,67.88
2022-07-31T01:33:55.055Z,67.98
2022-07-31T01:34:55.122Z,67.98
2022-07-31T01:35:55.182Z,67.98
2022-07-31T01:36:55.293Z,67.98
2022-07-31T01:37:55.366Z,68.08
2022-07-31T01:38:55.460Z,68.08
2022-07-31T01:39:55.602Z,67.88
2022-07-31T01:40:55.601Z,67.98
2022-07-31T01:41:55.682Z,67.98
2022-07-31T01:42:55.742Z,67.88
2022-07-31T01:43:55.851Z,67.78
2022-07-31T01:44:55.907Z,67.88
2022-07-31T01:45:55.968Z,68.08
2022-07-31T01:46:56.019Z,68.08
2022-07-31T01:47:56.146Z,68.18
2022-07-31T01:48:56.307Z,68.18
2022-07-31T01:49:56.336Z,68.29
2022-07-31T01:50:56.396Z,68.38
2022-07-31T01:51:56.468Z,68.38
2022-07-31T01:52:56.579Z,68.38
2022-07-31T01:53:56.638Z,68.38
2022-07-31T01:54:56.737Z,68.49
2022-07-31T01:56:03.746Z,68.49
2022-07-31T01:56:56.925Z,68.59
2022-07-31T01:57:56.974Z,68.59
2022-07-31T01:58:57.066Z,68.49
2022-07-31T01:59:57.156Z,68.38
2022-07-31T02:00:57.328Z,68.38
2022-07-31T02:01:57.347Z,68.38
2022-07-31T02:02:57.423Z,68.49
2022-07-31T02:03:57.551Z,68.59
2022-07-31T02:04:57.570Z,68.59
2022-07-31T02:05:57.698Z,68.49
2022-07-31T02:06:57.770Z,68.38
2022-07-31T02:07:57.821Z,68.38
2022-07-31T02:08:57.947Z,68.49
2022-07-31T02:09:59.284Z,68.59
2022-07-31T02:10:58.081Z,68.29
2022-07-31T02:11:58.174Z,68.18
2022-07-31T02:12:58.263Z,68.29
2022-07-31T02:13:58.353Z,68.29
2022-07-31T02:14:58.451Z,68.29
2022-07-31T02:15:58.518Z,68.29
2022-07-31T02:16:58.622Z,68.29
2022-07-31T02:17:58.723Z,68.29
2022-07-31T02:18:58.804Z,68.29
2022-07-31T02:20:00.274Z,68.49
2022-07-31T02:20:58.942Z,68.59
2022-07-31T02:21:59.038Z,68.59
2022-07-31T02:22:59.114Z,68.68
2022-07-31T02:23:59.184Z,68.59
2022-07-31T02:24:59.280Z,68.59
2022-07-31T02:25:59.380Z,68.59
2022-07-31T02:26:59.481Z,68.29
2022-07-31T02:27:59.529Z,68.29
2022-07-31T02:28:59.689Z,68.38
2022-07-31T02:29:59.734Z,68.49
2022-07-31T02:30:59.831Z,68.68
2022-07-31T02:32:09.820Z,68.68
2022-07-31T02:33:00.040Z,68.68
2022-07-31T02:34:00.112Z,68.68
2022-07-31T02:35:00.139Z,68.68
2022-07-31T02:36:00.223Z,68.68
2022-07-31T02:37:00.298Z,68.68
2022-07-31T02:38:00.385Z,68.68
2022-07-31T02:39:00.531Z,68.68
2022-07-31T02:40:00.561Z,68.79
2022-07-31T02:41:00.639Z,68.88
2022-07-31T02:42:01.207Z,68.88
2022-07-31T02:43:00.805Z,68.88
2022-07-31T02:44:00.945Z,68.79
2022-07-31T02:45:01.026Z,68.68
2022-07-31T02:46:01.089Z,68.62
2022-07-31T02:47:01.178Z,68.72
2022-07-31T02:48:01.239Z,68.72
2022-07-31T02:49:01.453Z,68.82
2022-07-31T02:50:01.400Z,68.82
2022-07-31T02:51:01.511Z,68.82
2022-07-31T02:52:01.890Z,68.92
2022-07-31T02:53:01.660Z,68.88
2022-07-31T02:54:01.732Z,68.88
2022-07-31T02:55:01.799Z,69.02
2022-07-31T02:56:01.902Z,69.09
2022-07-31T02:57:01.968Z,69.19
2022-07-31T02:58:02.064Z,69.19
2022-07-31T02:59:02.195Z,69.19
2022-07-31T03:00:02.279Z,69.19
2022-07-31T03:01:02.424Z,69.19
2022-07-31T03:02:02.735Z,69.19
2022-07-31T03:03:02.488Z,69.29
2022-07-31T03:04:02.607Z,69.32
2022-07-31T03:05:02.652Z,69.39
2022-07-31T03:06:02.750Z,69.39
2022-07-31T03:07:02.847Z,69.49
2022-07-31T03:08:02.972Z,69.49
2022-07-31T03:09:03.137Z,69.39
2022-07-31T03:10:03.205Z,69.39
2022-07-31T03:11:03.201Z,69.39
2022-07-31T03:12:04.973Z,69.39
2022-07-31T03:13:03.443Z,69.39
2022-07-31T03:14:03.428Z,69.29
2022-07-31T03:15:03.462Z,69.29
2022-07-31T03:16:03.589Z,69.19
2022-07-31T03:17:03.630Z,69.29
2022-07-31T03:18:08.491Z,69.19
2022-07-31T03:19:03.810Z,69.29
2022-07-31T03:20:03.881Z,69.39
2022-07-31T03:21:03.965Z,69.49
2022-07-31T03:22:04.458Z,69.49
2022-07-31T03:23:04.057Z,69.49
2022-07-31T03:24:04.168Z,69.59
2022-07-31T03:25:04.216Z,69.59
2022-07-31T03:26:04.345Z,69.59
2022-07-31T03:27:04.374Z,69.59
2022-07-31T03:28:04.508Z,69.69
2022-07-31T03:29:04.597Z,69.79
2022-07-31T03:30:04.666Z,69.89
2022-07-31T03:31:04.717Z,69.89
2022-07-31T03:32:05.139Z,69.89
2022-07-31T03:33:04.902Z,69.89
2022-07-31T03:34:05.029Z,69.89
2022-07-31T03:35:05.081Z,69.89
2022-07-31T03:36:05.175Z,69.89
2022-07-31T03:37:05.234Z,69.89
2022-07-31T03:38:41.319Z,69.99
2022-07-31T03:39:05.391Z,70.09
2022-07-31T03:40:05.489Z,70.09
2022-07-31T03:41:05.605Z,70.09
2022-07-31T03:42:06.117Z,70.09
2022-07-31T03:43:05.760Z,70.19
2022-07-31T03:44:05.820Z,70.19
2022-07-31T03:45:05.925Z,70.19
2022-07-31T03:46:05.988Z,70.19
2022-07-31T03:47:06.034Z,70.19
2022-07-31T03:48:06.143Z,70.19
2022-07-31T03:49:06.298Z,70.19
2022-07-31T03:50:06.277Z,70.19
2022-07-31T03:51:06.395Z,70.19
2022-07-31T03:52:11.779Z,70.29
2022-07-31T03:53:06.552Z,70.29
2022-07-31T03:54:06.663Z,70.29
2022-07-31T03:55:06.707Z,70.29
2022-07-31T03:56:06.792Z,70.19
2022-07-31T03:57:06.893Z,70.19
2022-07-31T03:58:06.975Z,70.19
2022-07-31T03:59:07.121Z,70.29
2022-07-31T04:00:07.418Z,70.39
2022-07-31T04:01:09.779Z,70.39
2022-07-31T04:02:07.409Z,70.50
2022-07-31T04:03:07.376Z,70.59
2022-07-31T04:04:07.515Z,70.59
2022-07-31T04:05:10.041Z,70.59
2022-07-31T04:06:07.666Z,70.59
2022-07-31T04:07:07.718Z,70.39
2022-07-31T04:08:07.805Z,69.99
2022-07-31T04:09:18.674Z,69.89
2022-07-31T04:10:07.998Z,69.99
2022-07-31T04:11:08.044Z,70.09
2022-07-31T04:12:08.151Z,70.09
2022-07-31T04:13:08.235Z,70.19
2022-07-31T04:14:08.336Z,70.19
2022-07-31T04:15:08.381Z,70.09
2022-07-31T04:16:08.475Z,70.09
2022-07-31T04:17:08.524Z,70.09
2022-07-31T04:18:08.616Z,70.09
2022-07-31T04:19:08.734Z,70.19
2022-07-31T04:20:08.798Z,70.19
2022-07-31T04:21:08.906Z,70.29
2022-07-31T04:22:09.355Z,70.29
2022-07-31T04:23:09.088Z,70.29
2022-07-31T04:24:09.139Z,70.39
2022-07-31T04:25:09.211Z,70.50
2022-07-31T04:26:09.283Z,70.50
2022-07-31T04:27:12.692Z,70.39
2022-07-31T04:28:09.459Z,70.19
2022-07-31T04:29:09.546Z,70.19
2022-07-31T04:30:09.619Z,70.29
2022-07-31T04:31:09.680Z,70.39
2022-07-31T04:32:09.749Z,70.39
2022-07-31T04:33:09.824Z,70.50
2022-07-31T04:34:09.935Z,70.50
2022-07-31T04:35:09.960Z,70.50
2022-07-31T04:36:29.083Z,70.50
2022-07-31T04:37:10.106Z,70.39
2022-07-31T04:38:10.193Z,70.39
2022-07-31T04:39:10.293Z,70.29
2022-07-31T04:40:10.373Z,70.29
2022-07-31T04:41:10.428Z,70.29
2022-07-31T04:42:11.644Z,70.29
2022-07-31T04:43:10.626Z,70.29
2022-07-31T04:44:10.705Z,70.19
2022-07-31T04:45:10.816Z,70.09
2022-07-31T04:46:17.502Z,70.09
2022-07-31T04:47:10.986Z,70.09
2022-07-31T04:48:11.162Z,69.89
2022-07-31T04:49:11.199Z,69.89
2022-07-31T04:50:11.224Z,69.79
2022-07-31T04:51:11.301Z,69.69
2022-07-31T04:52:11.366Z,69.69
2022-07-31T04:53:11.475Z,69.69
2022-07-31T04:54:11.563Z,69.89
2022-07-31T04:55:11.611Z,69.89
2022-07-31T04:56:11.711Z,69.99
2022-07-31T04:57:11.816Z,70.09
2022-07-31T04:58:11.878Z,70.29
2022-07-31T04:59:11.965Z,70.39
2022-07-31T05:00:12.025Z,70.50
2022-07-31T05:01:12.153Z,70.50
2022-07-31T05:02:12.465Z,70.70
2022-07-31T05:03:12.307Z,70.70
2022-07-31T05:04:12.428Z,70.79
2022-07-31T05:05:12.469Z,70.79
2022-07-31T05:06:12.543Z,70.79
2022-07-31T05:07:12.604Z,70.79
2022-07-31T05:08:12.729Z,70.79
2022-07-31T05:09:18.470Z,70.79
2022-07-31T05:10:12.907Z,70.79
2022-07-31T05:11:12.968Z,70.79
2022-07-31T05:12:13.076Z,70.79
2022-07-31T05:13:13.127Z,70.89
2022-07-31T05:14:13.256Z,70.89
2022-07-31T05:15:13.288Z,70.79
2022-07-31T05:16:13.396Z,70.70
2022-07-31T05:17:13.502Z,70.66
2022-07-31T05:18:13.558Z,70.56
2022-07-31T05:19:15.010Z,70.59
2022-07-31T05:20:13.681Z,70.50
2022-07-31T05:21:13.766Z,70.59
2022-07-31T05:22:13.879Z,70.59
2022-07-31T05:23:13.971Z,70.50
2022-07-31T05:24:14.066Z,70.50
2022-07-31T05:25:14.122Z,70.39
2022-07-31T05:26:14.203Z,70.29
2022-07-31T05:27:14.290Z,70.29
2022-07-31T05:28:14.382Z,70.19
2022-07-31T05:29:14.507Z,70.19
2022-07-31T05:30:14.518Z,69.89
2022-07-31T05:31:14.619Z,69.69
2022-07-31T05:32:15.019Z,69.59
2022-07-31T05:33:14.771Z,69.49
2022-07-31T05:34:14.910Z,69.39
2022-07-31T05:35:14.930Z,69.09
2022-07-31T05:36:15.045Z,68.99
2022-07-31T05:37:15.111Z,68.99
2022-07-31T05:38:15.185Z,69.09
2022-07-31T05:39:15.319Z,68.99
2022-07-31T05:40:15.369Z,69.09
2022-07-31T05:41:15.488Z,69.29
2022-07-31T05:42:15.556Z,69.39
2022-07-31T05:43:15.635Z,69.49
2022-07-31T05:44:15.728Z,69.49
2022-07-31T05:45:15.787Z,69.59
2022-07-31T05:46:15.820Z,69.69
2022-07-31T05:47:15.950Z,69.79
2022-07-31T05:48:16.088Z,69.89
2022-07-31T05:49:16.263Z,69.89
2022-07-31T05:50:16.214Z,69.99
2022-07-31T05:51:16.297Z,69.89
2022-07-31T05:52:16.339Z,69.79
2022-07-31T05:53:16.433Z,69.79
2022-07-31T05:54:16.605Z,69.69
2022-07-31T05:55:16.636Z,69.89
2022-07-31T05:56:16.686Z,69.99
2022-07-31T05:57:33.680Z,70.19
2022-07-31T05:58:17.186Z,70.29
2022-07-31T05:59:17.056Z,70.39
2022-07-31T06:00:17.062Z,70.50
2022-07-31T06:01:17.228Z,70.59
2022-07-31T06:02:17.255Z,70.66
2022-07-31T06:03:17.311Z,70.76
2022-07-31T06:04:17.448Z,70.76
2022-07-31T06:05:17.519Z,70.56
2022-07-31T06:06:17.622Z,70.36
2022-07-31T06:07:17.651Z,70.36
2022-07-31T06:08:17.730Z,70.46
2022-07-31T06:09:17.792Z,70.46
2022-07-31T06:10:17.838Z,70.56
2022-07-31T06:11:17.946Z,70.56
2022-07-31T06:12:18.020Z,70.46
2022-07-31T06:13:18.129Z,70.36
2022-07-31T06:14:18.236Z,70.36
2022-07-31T06:15:18.310Z,70.36
2022-07-31T06:16:18.354Z,70.36
2022-07-31T06:17:18.458Z,70.46
2022-07-31T06:18:18.599Z,70.56
2022-07-31T06:19:18.623Z,70.56
2022-07-31T06:20:18.728Z,70.56
2022-07-31T06:21:56.505Z,70.46
2022-07-31T06:23:04.036Z,70.46
2022-07-31T06:23:57.673Z,70.56
2022-07-31T06:24:57.742Z,70.56
2022-07-31T06:25:57.822Z,70.66
2022-07-31T06:26:57.891Z,70.56
2022-07-31T06:28:00.035Z,70.56
2022-07-31T06:28:58.075Z,70.56
2022-07-31T06:29:58.182Z,70.46
2022-07-31T06:30:58.232Z,70.46
2022-07-31T06:31:58.341Z,70.36
2022-07-31T06:32:58.433Z,70.46
2022-07-31T06:33:58.496Z,70.46
2022-07-31T06:34:58.616Z,70.46
2022-07-31T06:35:58.674Z,70.46
2022-07-31T06:36:58.701Z,70.56
2022-07-31T06:37:58.779Z,70.56
2022-07-31T06:38:58.990Z,70.56
2022-07-31T06:39:58.987Z,70.66
2022-07-31T06:40:59.004Z,70.76
2022-07-31T06:41:59.110Z,70.76
2022-07-31T06:43:01.753Z,70.86
2022-07-31T06:43:59.277Z,70.96
2022-07-31T06:44:59.353Z,71.06
2022-07-31T06:45:59.431Z,71.06
2022-07-31T06:46:59.521Z,71.06
2022-07-31T06:47:59.577Z,71.06
2022-07-31T06:48:59.787Z,71.06
2022-07-31T06:49:59.803Z,71.06
2022-07-31T06:51:27.951Z,71.06
2022-07-31T06:52:00.963Z,70.93
2022-07-31T06:53:00.008Z,71.03
2022-07-31T06:54:00.113Z,71.03
2022-07-31T06:55:00.200Z,71.03
2022-07-31T06:56:00.258Z,71.13
2022-07-31T06:57:00.374Z,71.23
2022-07-31T06:58:00.432Z,71.23
2022-07-31T06:59:00.472Z,71.23
2022-07-31T07:00:04.239Z,71.23
2022-07-31T07:01:00.722Z,71.13
2022-07-31T07:02:00.729Z,71.03
2022-07-31T07:03:00.816Z,71.03
2022-07-31T07:04:00.886Z,70.93
2022-07-31T07:05:06.696Z,70.93
2022-07-31T07:06:01.075Z,70.93
2022-07-31T07:07:01.135Z,71.03
2022-07-31T07:08:01.251Z,71.03
2022-07-31T07:09:01.290Z,71.03
2022-07-31T07:10:01.391Z,71.03
2022-07-31T07:11:01.470Z,71.03
2022-07-31T07:12:01.642Z,71.03
2022-07-31T07:13:01.635Z,71.13
2022-07-31T07:14:01.700Z,71.13
2022-07-31T07:15:01.827Z,71.03
2022-07-31T07:16:01.901Z,70.93
2022-07-31T07:17:01.982Z,71.03
2022-07-31T07:18:02.086Z,71.13
2022-07-31T07:19:02.167Z,71.13
2022-07-31T07:20:02.292Z,71.13
2022-07-31T07:21:02.353Z,71.13
2022-07-31T07:22:02.729Z,71.13
2022-07-31T07:23:02.510Z,71.20
2022-07-31T07:24:02.613Z,71.09
2022-07-31T07:25:02.691Z,71.00
2022-07-31T07:26:02.740Z,71.20
2022-07-31T07:27:02.837Z,71.09
2022-07-31T07:28:02.906Z,70.89
2022-07-31T07:29:02.971Z,70.89
2022-07-31T07:30:03.078Z,70.79
2022-07-31T07:31:03.140Z,70.69
2022-07-31T07:32:03.554Z,70.59
2022-07-31T07:33:03.292Z,70.59
2022-07-31T07:34:03.369Z,70.69
2022-07-31T07:35:03.469Z,70.69
2022-07-31T07:36:03.528Z,70.59
2022-07-31T07:37:03.634Z,70.59
2022-07-31T07:38:03.730Z,70.59
2022-07-31T07:39:03.782Z,70.50
2022-07-31T07:40:04.347Z,70.50
2022-07-31T07:41:03.955Z,70.56
2022-07-31T07:42:04.373Z,70.66
2022-07-31T07:43:04.132Z,70.46
2022-07-31T07:44:04.217Z,70.36
2022-07-31T07:45:07.280Z,70.36
2022-07-31T07:46:04.408Z,70.56
2022-07-31T07:47:04.497Z,70.56
2022-07-31T07:48:06.351Z,70.56
2022-07-31T07:49:04.794Z,70.56
2022-07-31T07:50:04.812Z,70.46
2022-07-31T07:51:04.860Z,70.26
2022-07-31T07:52:04.941Z,70.26
2022-07-31T07:53:05.013Z,70.26
2022-07-31T07:54:05.072Z,70.16
2022-07-31T07:55:05.146Z,70.26
2022-07-31T07:56:05.189Z,70.26
2022-07-31T07:57:05.323Z,70.06
2022-07-31T07:58:08.830Z,69.93
2022-07-31T07:59:05.485Z,69.73
2022-07-31T08:00:05.594Z,69.82
2022-07-31T08:01:05.723Z,70.03
2022-07-31T08:02:06.090Z,69.73
2022-07-31T08:03:48.753Z,69.82
2022-07-31T08:04:05.903Z,70.03
2022-07-31T08:05:05.985Z,69.82
2022-07-31T08:06:06.034Z,69.42
2022-07-31T08:07:06.157Z,69.02
2022-07-31T08:08:06.184Z,69.02
2022-07-31T08:09:06.288Z,68.92
2022-07-31T08:10:06.366Z,68.92
2022-07-31T08:11:06.432Z,68.92
2022-07-31T08:12:06.968Z,68.99
2022-07-31T08:13:06.605Z,68.99
2022-07-31T08:14:06.709Z,69.09
2022-07-31T08:15:06.784Z,69.09
2022-07-31T08:16:06.824Z,69.09
2022-07-31T08:17:06.923Z,69.09
2022-07-31T08:18:06.975Z,69.19
2022-07-31T08:19:07.054Z,69.39
2022-07-31T08:20:07.162Z,69.19
2022-07-31T08:21:07.225Z,69.09
2022-07-31T08:22:07.585Z,68.99
2022-07-31T08:23:07.355Z,69.19
2022-07-31T08:24:07.459Z,69.19
2022-07-31T08:25:07.590Z,69.29
2022-07-31T08:26:07.629Z,69.29
2022-07-31T08:27:10.682Z,68.96
2022-07-31T08:28:11.165Z,67.76
2022-07-31T08:29:07.867Z,65.66
2022-07-31T08:30:08.035Z,66.05
2022-07-31T08:31:08.050Z,66.16
2022-07-31T08:32:08.108Z,66.25
2022-07-31T08:33:08.224Z,66.66
2022-07-31T08:34:08.290Z,67.16
2022-07-31T08:35:08.427Z,67.05
2022-07-31T08:36:08.452Z,66.55
2022-07-31T08:38:01.629Z,66.25
2022-07-31T08:38:08.619Z,66.22
2022-07-31T08:39:08.672Z,66.32
2022-07-31T08:40:08.794Z,66.22
2022-07-31T08:41:08.852Z,66.32
2022-07-31T08:42:08.969Z,66.42
2022-07-31T08:43:19.688Z,66.02
2022-07-31T08:44:09.116Z,63.53
2022-07-31T08:45:09.238Z,63.62
2022-07-31T08:46:09.327Z,63.62
2022-07-31T08:47:09.427Z,63.82
2022-07-31T08:48:09.485Z,64.03
2022-07-31T08:49:09.631Z,62.72
2022-07-31T08:50:09.645Z,61.72
2022-07-31T08:51:09.758Z,61.69
2022-07-31T08:52:09.799Z,62.19
2022-07-31T08:53:09.887Z,61.89
2022-07-31T08:54:09.972Z,62.09
2022-07-31T08:55:10.071Z,62.49
2022-07-31T08:56:10.154Z,62.59
2022-07-31T08:57:12.971Z,62.79
2022-07-31T08:58:10.282Z,62.79
2022-07-31T08:59:10.376Z,62.56
2022-07-31T09:00:10.494Z,62.16
2022-07-31T09:01:10.635Z,62.16
2022-07-31T09:02:10.642Z,61.26
2022-07-31T09:03:10.719Z,60.96
2022-07-31T09:04:10.811Z,61.57
2022-07-31T09:05:10.971Z,61.16
2022-07-31T09:06:10.982Z,60.57
2022-07-31T09:07:11.092Z,59.27
2022-07-31T09:08:14.650Z,59.77
2022-07-31T09:09:11.231Z,60.14
2022-07-31T09:10:11.324Z,59.53
2022-07-31T09:11:11.418Z,58.73
2022-07-31T09:12:11.452Z,58.94
2022-07-31T09:13:11.549Z,59.23
2022-07-31T09:14:11.636Z,59.23
2022-07-31T09:15:11.791Z,59.23
2022-07-31T09:16:11.824Z,59.34
2022-07-31T09:17:11.942Z,59.34
2022-07-31T09:18:11.993Z,59.23
2022-07-31T09:19:51.892Z,59.34
2022-07-31T09:20:12.197Z,58.94
2022-07-31T09:21:12.204Z,58.73
2022-07-31T09:22:12.294Z,58.44
2022-07-31T09:23:12.358Z,57.74
2022-07-31T09:24:12.477Z,58.04
2022-07-31T09:25:12.581Z,57.51
2022-07-31T09:26:12.628Z,57.31
2022-07-31T09:27:12.706Z,57.01
2022-07-31T09:28:12.797Z,57.51
2022-07-31T09:29:12.876Z,57.51
2022-07-31T09:30:12.985Z,57.41
2022-07-31T09:31:13.028Z,57.41
2022-07-31T09:32:13.130Z,57.01
2022-07-31T09:33:13.221Z,57.39
2022-07-31T09:34:13.300Z,57.58
2022-07-31T09:35:13.406Z,57.58
2022-07-31T09:36:13.526Z,57.09
2022-07-31T09:37:13.562Z,56.88
2022-07-31T09:38:13.718Z,53.49
2022-07-31T09:39:13.743Z,53.89
2022-07-31T09:40:13.852Z,54.69
2022-07-31T09:41:55.865Z,55.19
2022-07-31T09:42:16.930Z,55.58
2022-07-31T09:43:14.107Z,55.69
2022-07-31T09:44:14.172Z,55.69
2022-07-31T09:45:14.296Z,55.49
2022-07-31T09:46:14.350Z,55.69
2022-07-31T09:47:14.492Z,55.58
2022-07-31T09:48:18.347Z,55.99
2022-07-31T09:49:14.708Z,55.39
2022-07-31T09:50:14.681Z,55.09
2022-07-31T09:51:14.776Z,55.39
2022-07-31T09:52:14.863Z,55.66
2022-07-31T09:53:14.970Z,55.76
2022-07-31T09:54:15.003Z,55.96
2022-07-31T09:55:16.539Z,55.46
2022-07-31T09:56:15.211Z,54.86
2022-07-31T09:57:15.299Z,54.46
2022-07-31T09:58:15.385Z,54.46
2022-07-31T09:59:15.487Z,55.06
2022-07-31T10:00:17.376Z,55.36
2022-07-31T10:01:15.602Z,55.26
2022-07-31T10:02:15.699Z,55.26
2022-07-31T10:03:15.788Z,55.46
2022-07-31T10:04:15.875Z,54.86
2022-07-31T10:05:16.024Z,54.86
2022-07-31T10:06:16.660Z,55.26
2022-07-31T10:07:31.640Z,55.66
2022-07-31T10:08:16.209Z,55.66
2022-07-31T10:09:16.286Z,55.86
2022-07-31T10:10:16.386Z,56.06
2022-07-31T10:11:16.889Z,56.33
2022-07-31T10:12:16.656Z,56.43
2022-07-31T10:13:16.606Z,56.53
2022-07-31T10:14:16.653Z,55.83
2022-07-31T10:15:16.777Z,55.93
2022-07-31T10:16:16.829Z,55.24
2022-07-31T10:17:16.926Z,55.33
2022-07-31T10:18:17.003Z,55.54
2022-07-31T10:19:17.087Z,56.13
2022-07-31T10:20:17.201Z,55.83
2022-07-31T10:21:17.307Z,55.63
2022-07-31T10:22:17.329Z,55.93
2022-07-31T10:23:17.441Z,55.83
2022-07-31T10:24:17.512Z,56.23
2022-07-31T10:25:17.622Z,56.43
2022-07-31T10:26:17.683Z,56.93
2022-07-31T10:27:18.087Z,57.03
2022-07-31T10:28:17.785Z,56.81
2022-07-31T10:29:17.891Z,56.40
2022-07-31T10:30:18.021Z,56.51
2022-07-31T10:31:18.044Z,55.31
2022-07-31T10:32:18.129Z,53.81
2022-07-31T10:33:42.350Z,53.91
2022-07-31T10:34:18.300Z,54.51
2022-07-31T10:35:18.484Z,54.58
2022-07-31T10:36:18.480Z,54.49
2022-07-31T10:37:18.521Z,53.99
2022-07-31T10:38:18.588Z,54.38
2022-07-31T10:39:18.662Z,54.98
2022-07-31T10:40:18.785Z,53.69
2022-07-31T10:41:18.825Z,53.27
2022-07-31T10:42:18.915Z,53.96
2022-07-31T10:43:19.001Z,54.16
2022-07-31T10:44:19.102Z,54.06
2022-07-31T10:45:19.223Z,54.26
2022-07-31T10:46:19.267Z,54.66
2022-07-31T10:47:19.390Z,54.26
2022-07-31T10:48:19.415Z,54.66
2022-07-31T10:49:19.549Z,54.66
2022-07-31T10:50:19.615Z,54.16
2022-07-31T10:51:19.669Z,53.96
2022-07-31T10:52:19.767Z,53.14
2022-07-31T10:53:19.826Z,52.84
2022-07-31T10:54:19.897Z,53.34
2022-07-31T10:55:20.004Z,53.53
2022-07-31T10:56:20.065Z,54.03
2022-07-31T10:57:20.141Z,54.03
2022-07-31T10:58:20.178Z,52.54
2022-07-31T10:59:20.304Z,52.84
2022-07-31T11:00:20.363Z,52.54
2022-07-31T11:01:20.482Z,52.34
2022-07-31T11:02:20.550Z,52.64
2022-07-31T11:03:20.639Z,53.04
2022-07-31T11:04:20.746Z,53.44
2022-07-31T11:05:20.891Z,53.04
2022-07-31T11:06:20.869Z,53.14
2022-07-31T11:07:20.974Z,53.44
2022-07-31T11:08:21.047Z,53.64
2022-07-31T11:09:21.081Z,53.53
2022-07-31T11:10:21.245Z,53.14
2022-07-31T11:11:25.932Z,53.34
2022-07-31T11:12:21.356Z,53.34
2022-07-31T11:13:21.446Z,53.64
2022-07-31T11:14:21.523Z,53.64
2022-07-31T11:15:21.644Z,53.83
2022-07-31T11:16:21.681Z,53.94
2022-07-31T11:18:17.374Z,53.64
2022-07-31T11:18:34.383Z,54.53
2022-07-31T11:19:21.911Z,53.94
2022-07-31T11:20:22.018Z,53.74
2022-07-31T11:21:38.071Z,54.01
2022-07-31T11:22:32.164Z,54.21
2022-07-31T11:23:22.255Z,53.51
2022-07-31T11:24:22.342Z,53.31
2022-07-31T11:25:22.471Z,53.31
2022-07-31T11:26:33.390Z,52.81
2022-07-31T11:27:22.627Z,52.51
2022-07-31T11:28:22.688Z,52.12
2022-07-31T11:30:01.429Z,52.32
2022-07-31T11:30:22.842Z,52.19
2022-07-31T11:31:22.935Z,52.00
2022-07-31T11:32:26.085Z,52.39
2022-07-31T11:33:23.085Z,52.79
2022-07-31T11:34:23.221Z,52.49
2022-07-31T11:35:23.304Z,52.39
2022-07-31T11:36:23.382Z,52.89
2022-07-31T11:37:23.571Z,52.69
2022-07-31T11:38:23.502Z,52.29
2022-07-31T11:39:26.621Z,51.70
2022-07-31T11:40:27.839Z,51.50
2022-07-31T11:41:23.728Z,51.00
2022-07-31T11:42:26.544Z,51.10
2022-07-31T11:43:25.912Z,51.20
2022-07-31T11:44:24.019Z,51.40
2022-07-31T11:45:24.093Z,51.50
2022-07-31T11:46:24.110Z,51.70
2022-07-31T11:48:09.554Z,52.39
2022-07-31T11:48:27.361Z,52.49
2022-07-31T11:49:48.194Z,52.49
2022-07-31T11:50:24.490Z,52.29
2022-07-31T11:51:24.570Z,52.49
2022-07-31T11:52:30.609Z,51.67
2022-07-31T11:53:24.681Z,50.88
2022-07-31T11:54:24.775Z,51.37
2022-07-31T11:55:24.880Z,50.38
2022-07-31T11:56:24.996Z,50.38
2022-07-31T11:57:25.030Z,50.08
2022-07-31T11:58:25.096Z,49.96
2022-07-31T11:59:45.195Z,49.66
2022-07-31T12:00:29.708Z,49.56
2022-07-31T12:01:25.327Z,50.65
2022-07-31T12:02:25.424Z,50.35
2022-07-31T12:03:25.493Z,50.85
2022-07-31T12:04:25.544Z,50.65
2022-07-31T12:05:38.618Z,50.83
2022-07-31T12:06:25.722Z,50.53
2022-07-31T12:07:25.764Z,50.43
2022-07-31T12:08:25.896Z,50.03
2022-07-31T12:10:00.410Z,50.03
2022-07-31T12:10:26.094Z,51.42
2022-07-31T12:11:26.099Z,49.74
2022-07-31T12:12:27.421Z,50.03
2022-07-31T12:13:26.284Z,49.11
2022-07-31T12:14:26.369Z,48.42
2022-07-31T12:15:26.575Z,48.72
2022-07-31T12:16:26.517Z,49.81
2022-07-31T12:17:26.622Z,48.62
2022-07-31T12:18:26.675Z,48.82
2022-07-31T12:19:26.765Z,48.72
2022-07-31T12:20:35.250Z,47.63
2022-07-31T12:21:26.949Z,47.92
2022-07-31T12:22:27.037Z,48.92
2022-07-31T12:23:40.351Z,48.32
2022-07-31T12:24:27.216Z,48.32
2022-07-31T12:25:27.307Z,48.13
2022-07-31T12:26:27.406Z,48.52
2022-07-31T12:27:27.491Z,47.73
2022-07-31T12:28:27.590Z,47.43
2022-07-31T12:29:27.676Z,47.23
2022-07-31T12:30:30.126Z,47.23
2022-07-31T12:31:27.809Z,47.33
2022-07-31T12:32:27.900Z,46.93
2022-07-31T12:33:28.021Z,46.95
2022-07-31T12:34:28.081Z,47.75
2022-07-31T12:35:28.208Z,47.75
2022-07-31T12:36:28.256Z,47.13
2022-07-31T12:37:28.369Z,47.33
2022-07-31T12:38:48.511Z,47.55
2022-07-31T12:39:53.684Z,46.95
2022-07-31T12:40:28.612Z,46.53
2022-07-31T12:41:28.698Z,46.76
2022-07-31T12:42:30.971Z,46.36
2022-07-31T12:43:28.814Z,46.26
2022-07-31T12:44:28.904Z,46.56
2022-07-31T12:45:29.063Z,45.76
2022-07-31T12:46:29.064Z,45.56
2022-07-31T12:47:29.189Z,45.96
2022-07-31T12:48:29.287Z,46.64
2022-07-31T12:49:29.415Z,47.13
2022-07-31T12:50:29.416Z,47.23
2022-07-31T12:51:46.092Z,47.53
2022-07-31T12:52:29.586Z,47.23
2022-07-31T12:53:29.675Z,45.94
2022-07-31T12:54:29.792Z,46.14